sensor_id;sensor_type;location;lat;lon;timestamp;P1;durP1;ratioP1;P2;durP2;ratioP2
3141;SDS011;1581;51.568;6.998;2024-03-06T00:00:08;27.43;;;20.30;;
3141;SDS011;1581;51.568;6.998;2024-03-06T00:02:36;26.63;;;17.67;;
3141;SDS011;1581;51.568;6.998;2024-03-06T00:05:03;30.63;;;19.33;;
3141;SDS011;1581;51.568;6.998;2024-03-06T00:07:32;28.87;;;18.03;;
3141;SDS011;1581;51.568;6.998;2024-03-06T00:09:59;33.27;;;19.47;;
3141;SDS011;1581;51.568;6.998;2024-03-06T00:12:26;34.03;;;20.20;;
3141;SDS011;1581;51.568;6.998;2024-03-06T00:14:53;28.03;;;19.70;;
3141;SDS011;1581;51.568;6.998;2024-03-06T00:17:21;31.33;;;20.07;;
3141;SDS011;1581;51.568;6.998;2024-03-06T00:19:48;30.40;;;21.03;;
3141;SDS011;1581;51.568;6.998;2024-03-06T00:22:16;33.33;;;19.03;;
3141;SDS011;1581;51.568;6.998;2024-03-06T00:24:43;33.00;;;20.10;;
3141;SDS011;1581;51.568;6.998;2024-03-06T00:27:10;33.67;;;19.07;;
3141;SDS011;1581;51.568;6.998;2024-03-06T00:29:37;29.20;;;20.57;;
3141;SDS011;1581;51.568;6.998;2024-03-06T00:32:04;35.27;;;20.40;;
3141;SDS011;1581;51.568;6.998;2024-03-06T00:34:33;27.30;;;18.83;;
3141;SDS011;1581;51.568;6.998;2024-03-06T00:37:00;30.97;;;19.47;;
3141;SDS011;1581;51.568;6.998;2024-03-06T00:39:28;33.73;;;20.67;;
3141;SDS011;1581;51.568;6.998;2024-03-06T00:41:55;32.13;;;20.30;;
3141;SDS011;1581;51.568;6.998;2024-03-06T00:44:22;34.87;;;21.37;;
3141;SDS011;1581;51.568;6.998;2024-03-06T00:46:49;33.53;;;21.33;;
3141;SDS011;1581;51.568;6.998;2024-03-06T00:49:16;35.90;;;21.90;;
3141;SDS011;1581;51.568;6.998;2024-03-06T00:51:44;32.40;;;21.90;;
3141;SDS011;1581;51.568;6.998;2024-03-06T00:54:11;32.30;;;21.40;;
3141;SDS011;1581;51.568;6.998;2024-03-06T00:56:38;37.93;;;22.33;;
3141;SDS011;1581;51.568;6.998;2024-03-06T00:59:05;34.23;;;21.03;;
3141;SDS011;1581;51.568;6.998;2024-03-06T01:01:32;33.53;;;22.50;;
3141;SDS011;1581;51.568;6.998;2024-03-06T01:03:59;35.90;;;21.33;;
3141;SDS011;1581;51.568;6.998;2024-03-06T01:06:27;35.70;;;19.83;;
3141;SDS011;1581;51.568;6.998;2024-03-06T01:08:55;29.70;;;20.37;;
3141;SDS011;1581;51.568;6.998;2024-03-06T01:11:23;34.90;;;22.37;;
3141;SDS011;1581;51.568;6.998;2024-03-06T01:13:51;33.60;;;21.43;;
3141;SDS011;1581;51.568;6.998;2024-03-06T01:16:18;39.83;;;22.67;;
3141;SDS011;1581;51.568;6.998;2024-03-06T01:18:45;37.03;;;21.80;;
3141;SDS011;1581;51.568;6.998;2024-03-06T01:21:12;31.63;;;20.00;;
3141;SDS011;1581;51.568;6.998;2024-03-06T01:23:40;31.10;;;19.90;;
3141;SDS011;1581;51.568;6.998;2024-03-06T01:26:08;31.27;;;20.50;;
3141;SDS011;1581;51.568;6.998;2024-03-06T01:28:36;32.67;;;19.43;;
3141;SDS011;1581;51.568;6.998;2024-03-06T01:31:03;30.47;;;19.50;;
3141;SDS011;1581;51.568;6.998;2024-03-06T01:33:30;30.40;;;18.93;;
3141;SDS011;1581;51.568;6.998;2024-03-06T01:35:57;33.93;;;19.57;;
3141;SDS011;1581;51.568;6.998;2024-03-06T01:38:24;30.90;;;17.20;;
3141;SDS011;1581;51.568;6.998;2024-03-06T01:40:51;28.80;;;18.60;;
3141;SDS011;1581;51.568;6.998;2024-03-06T01:43:20;29.10;;;18.60;;
3141;SDS011;1581;51.568;6.998;2024-03-06T01:45:48;30.93;;;19.30;;
3141;SDS011;1581;51.568;6.998;2024-03-06T01:48:16;30.10;;;19.10;;
3141;SDS011;1581;51.568;6.998;2024-03-06T01:50:46;25.57;;;17.00;;
3141;SDS011;1581;51.568;6.998;2024-03-06T01:53:12;30.77;;;17.03;;
3141;SDS011;1581;51.568;6.998;2024-03-06T01:55:42;25.70;;;15.87;;
3141;SDS011;1581;51.568;6.998;2024-03-06T01:58:09;24.47;;;16.93;;
3141;SDS011;1581;51.568;6.998;2024-03-06T02:00:38;25.40;;;17.07;;
3141;SDS011;1581;51.568;6.998;2024-03-06T02:03:06;27.47;;;17.93;;
3141;SDS011;1581;51.568;6.998;2024-03-06T02:05:33;27.50;;;17.63;;
3141;SDS011;1581;51.568;6.998;2024-03-06T02:08:01;24.90;;;16.77;;
3141;SDS011;1581;51.568;6.998;2024-03-06T02:10:29;24.23;;;16.80;;
3141;SDS011;1581;51.568;6.998;2024-03-06T02:12:56;26.37;;;15.33;;
3141;SDS011;1581;51.568;6.998;2024-03-06T02:15:24;22.10;;;16.37;;
3141;SDS011;1581;51.568;6.998;2024-03-06T02:17:52;24.17;;;15.70;;
3141;SDS011;1581;51.568;6.998;2024-03-06T02:20:22;23.60;;;15.60;;
3141;SDS011;1581;51.568;6.998;2024-03-06T02:22:50;19.40;;;12.30;;
3141;SDS011;1581;51.568;6.998;2024-03-06T02:25:17;21.97;;;13.83;;
3141;SDS011;1581;51.568;6.998;2024-03-06T02:27:45;19.20;;;13.27;;
3141;SDS011;1581;51.568;6.998;2024-03-06T02:30:13;19.83;;;13.53;;
3141;SDS011;1581;51.568;6.998;2024-03-06T02:32:40;20.77;;;13.50;;
3141;SDS011;1581;51.568;6.998;2024-03-06T02:35:08;19.97;;;14.33;;
3141;SDS011;1581;51.568;6.998;2024-03-06T02:37:37;21.97;;;14.10;;
3141;SDS011;1581;51.568;6.998;2024-03-06T02:40:04;22.97;;;13.77;;
3141;SDS011;1581;51.568;6.998;2024-03-06T02:42:35;18.83;;;12.07;;
3141;SDS011;1581;51.568;6.998;2024-03-06T02:45:04;15.23;;;10.50;;
3141;SDS011;1581;51.568;6.998;2024-03-06T02:47:32;14.00;;;10.07;;
3141;SDS011;1581;51.568;6.998;2024-03-06T02:49:59;16.20;;;11.53;;
3141;SDS011;1581;51.568;6.998;2024-03-06T02:52:26;17.70;;;12.07;;
3141;SDS011;1581;51.568;6.998;2024-03-06T02:54:54;19.70;;;13.10;;
3141;SDS011;1581;51.568;6.998;2024-03-06T02:57:22;25.00;;;15.03;;
3141;SDS011;1581;51.568;6.998;2024-03-06T02:59:49;26.80;;;16.97;;
3141;SDS011;1581;51.568;6.998;2024-03-06T03:02:16;32.13;;;16.57;;
3141;SDS011;1581;51.568;6.998;2024-03-06T03:04:43;29.70;;;17.50;;
3141;SDS011;1581;51.568;6.998;2024-03-06T03:07:10;35.97;;;20.00;;
3141;SDS011;1581;51.568;6.998;2024-03-06T03:09:37;33.80;;;19.50;;
3141;SDS011;1581;51.568;6.998;2024-03-06T03:12:05;29.20;;;18.23;;
3141;SDS011;1581;51.568;6.998;2024-03-06T03:14:33;34.90;;;18.30;;
3141;SDS011;1581;51.568;6.998;2024-03-06T03:16:59;32.23;;;18.47;;
3141;SDS011;1581;51.568;6.998;2024-03-06T03:19:27;25.40;;;16.40;;
3141;SDS011;1581;51.568;6.998;2024-03-06T03:21:54;24.93;;;15.40;;
3141;SDS011;1581;51.568;6.998;2024-03-06T03:24:21;26.77;;;16.93;;
3141;SDS011;1581;51.568;6.998;2024-03-06T03:26:50;25.40;;;15.90;;
3141;SDS011;1581;51.568;6.998;2024-03-06T03:29:19;29.07;;;18.70;;
3141;SDS011;1581;51.568;6.998;2024-03-06T03:31:46;28.60;;;18.70;;
3141;SDS011;1581;51.568;6.998;2024-03-06T03:34:14;32.57;;;19.60;;
3141;SDS011;1581;51.568;6.998;2024-03-06T03:36:40;34.13;;;20.30;;
3141;SDS011;1581;51.568;6.998;2024-03-06T03:39:11;30.00;;;17.70;;
3141;SDS011;1581;51.568;6.998;2024-03-06T03:41:43;40.13;;;20.73;;
3141;SDS011;1581;51.568;6.998;2024-03-06T03:44:11;37.40;;;20.50;;
3141;SDS011;1581;51.568;6.998;2024-03-06T03:46:40;31.27;;;18.50;;
3141;SDS011;1581;51.568;6.998;2024-03-06T03:49:07;34.07;;;19.67;;
3141;SDS011;1581;51.568;6.998;2024-03-06T03:51:34;35.27;;;19.33;;
3141;SDS011;1581;51.568;6.998;2024-03-06T03:54:02;38.53;;;18.87;;
3141;SDS011;1581;51.568;6.998;2024-03-06T03:56:29;38.83;;;19.53;;
3141;SDS011;1581;51.568;6.998;2024-03-06T03:58:57;41.27;;;19.03;;
3141;SDS011;1581;51.568;6.998;2024-03-06T04:01:24;37.13;;;19.53;;
3141;SDS011;1581;51.568;6.998;2024-03-06T04:03:53;42.33;;;20.23;;
3141;SDS011;1581;51.568;6.998;2024-03-06T04:06:19;38.00;;;20.00;;
3141;SDS011;1581;51.568;6.998;2024-03-06T04:08:46;33.77;;;20.30;;
3141;SDS011;1581;51.568;6.998;2024-03-06T04:11:13;32.97;;;18.67;;
3141;SDS011;1581;51.568;6.998;2024-03-06T04:13:40;33.20;;;18.87;;
3141;SDS011;1581;51.568;6.998;2024-03-06T04:16:07;30.87;;;18.00;;
3141;SDS011;1581;51.568;6.998;2024-03-06T04:18:34;30.07;;;17.73;;
3141;SDS011;1581;51.568;6.998;2024-03-06T04:21:03;32.77;;;17.67;;
3141;SDS011;1581;51.568;6.998;2024-03-06T04:23:31;28.70;;;17.70;;
3141;SDS011;1581;51.568;6.998;2024-03-06T04:25:58;29.00;;;17.07;;
3141;SDS011;1581;51.568;6.998;2024-03-06T04:28:25;28.37;;;16.70;;
3141;SDS011;1581;51.568;6.998;2024-03-06T04:30:52;26.93;;;16.37;;
3141;SDS011;1581;51.568;6.998;2024-03-06T04:33:19;26.57;;;16.90;;
3141;SDS011;1581;51.568;6.998;2024-03-06T04:35:46;31.10;;;16.67;;
3141;SDS011;1581;51.568;6.998;2024-03-06T04:38:15;28.33;;;16.43;;
3141;SDS011;1581;51.568;6.998;2024-03-06T04:40:42;24.93;;;16.13;;
3141;SDS011;1581;51.568;6.998;2024-03-06T04:43:09;26.40;;;16.20;;
3141;SDS011;1581;51.568;6.998;2024-03-06T04:45:36;29.53;;;16.20;;
3141;SDS011;1581;51.568;6.998;2024-03-06T04:48:04;24.20;;;15.77;;
3141;SDS011;1581;51.568;6.998;2024-03-06T04:50:32;29.27;;;17.10;;
3141;SDS011;1581;51.568;6.998;2024-03-06T04:52:59;25.13;;;15.70;;
3141;SDS011;1581;51.568;6.998;2024-03-06T04:55:27;27.10;;;16.57;;
3141;SDS011;1581;51.568;6.998;2024-03-06T04:57:55;28.70;;;18.10;;
3141;SDS011;1581;51.568;6.998;2024-03-06T05:00:23;24.93;;;15.07;;
3141;SDS011;1581;51.568;6.998;2024-03-06T05:02:50;27.37;;;16.47;;
3141;SDS011;1581;51.568;6.998;2024-03-06T05:05:17;26.93;;;17.20;;
3141;SDS011;1581;51.568;6.998;2024-03-06T05:07:44;26.43;;;16.33;;
3141;SDS011;1581;51.568;6.998;2024-03-06T05:10:11;26.13;;;17.07;;
3141;SDS011;1581;51.568;6.998;2024-03-06T05:12:39;31.23;;;17.70;;
3141;SDS011;1581;51.568;6.998;2024-03-06T05:15:06;25.90;;;16.30;;
3141;SDS011;1581;51.568;6.998;2024-03-06T05:17:34;26.77;;;17.13;;
3141;SDS011;1581;51.568;6.998;2024-03-06T05:20:01;30.20;;;18.03;;
3141;SDS011;1581;51.568;6.998;2024-03-06T05:22:29;29.07;;;17.00;;
3141;SDS011;1581;51.568;6.998;2024-03-06T05:24:56;29.83;;;17.50;;
3141;SDS011;1581;51.568;6.998;2024-03-06T05:27:23;31.30;;;16.90;;
3141;SDS011;1581;51.568;6.998;2024-03-06T05:29:52;29.93;;;18.83;;
3141;SDS011;1581;51.568;6.998;2024-03-06T05:32:19;29.53;;;18.03;;
3141;SDS011;1581;51.568;6.998;2024-03-06T05:34:46;34.27;;;19.37;;
3141;SDS011;1581;51.568;6.998;2024-03-06T05:37:13;32.20;;;18.57;;
3141;SDS011;1581;51.568;6.998;2024-03-06T05:39:40;31.80;;;19.13;;
3141;SDS011;1581;51.568;6.998;2024-03-06T05:42:07;30.70;;;18.53;;
3141;SDS011;1581;51.568;6.998;2024-03-06T05:44:34;31.60;;;18.47;;
3141;SDS011;1581;51.568;6.998;2024-03-06T05:47:03;31.23;;;18.87;;
3141;SDS011;1581;51.568;6.998;2024-03-06T05:49:31;27.53;;;16.17;;
3141;SDS011;1581;51.568;6.998;2024-03-06T05:51:59;29.37;;;18.33;;
3141;SDS011;1581;51.568;6.998;2024-03-06T05:54:27;29.37;;;17.67;;
3141;SDS011;1581;51.568;6.998;2024-03-06T05:56:58;32.63;;;18.90;;
3141;SDS011;1581;51.568;6.998;2024-03-06T05:59:25;33.10;;;18.93;;
3141;SDS011;1581;51.568;6.998;2024-03-06T06:01:53;30.47;;;18.20;;
3141;SDS011;1581;51.568;6.998;2024-03-06T06:04:22;29.07;;;17.50;;
3141;SDS011;1581;51.568;6.998;2024-03-06T06:06:49;37.33;;;19.30;;
3141;SDS011;1581;51.568;6.998;2024-03-06T06:09:16;36.50;;;19.70;;
3141;SDS011;1581;51.568;6.998;2024-03-06T06:11:43;33.33;;;18.03;;
3141;SDS011;1581;51.568;6.998;2024-03-06T06:14:10;32.87;;;17.10;;
3141;SDS011;1581;51.568;6.998;2024-03-06T06:16:37;31.03;;;18.70;;
3141;SDS011;1581;51.568;6.998;2024-03-06T06:19:06;29.83;;;18.17;;
3141;SDS011;1581;51.568;6.998;2024-03-06T06:21:34;31.90;;;18.17;;
3141;SDS011;1581;51.568;6.998;2024-03-06T06:24:02;28.73;;;16.57;;
3141;SDS011;1581;51.568;6.998;2024-03-06T06:26:30;29.57;;;17.33;;
3141;SDS011;1581;51.568;6.998;2024-03-06T06:28:57;27.97;;;16.70;;
3141;SDS011;1581;51.568;6.998;2024-03-06T06:31:24;31.80;;;17.17;;
3141;SDS011;1581;51.568;6.998;2024-03-06T06:33:52;27.17;;;16.27;;
3141;SDS011;1581;51.568;6.998;2024-03-06T06:36:19;27.10;;;16.20;;
3141;SDS011;1581;51.568;6.998;2024-03-06T06:38:47;36.63;;;18.73;;
3141;SDS011;1581;51.568;6.998;2024-03-06T06:41:14;31.63;;;18.13;;
3141;SDS011;1581;51.568;6.998;2024-03-06T06:43:44;31.77;;;17.43;;
3141;SDS011;1581;51.568;6.998;2024-03-06T06:46:11;30.57;;;18.93;;
3141;SDS011;1581;51.568;6.998;2024-03-06T06:48:38;35.97;;;19.77;;
3141;SDS011;1581;51.568;6.998;2024-03-06T06:51:05;33.83;;;19.87;;
3141;SDS011;1581;51.568;6.998;2024-03-06T06:53:33;34.43;;;18.77;;
3141;SDS011;1581;51.568;6.998;2024-03-06T06:56:01;37.50;;;19.60;;
3141;SDS011;1581;51.568;6.998;2024-03-06T06:58:29;42.70;;;21.40;;
3141;SDS011;1581;51.568;6.998;2024-03-06T07:00:56;43.60;;;22.33;;
3141;SDS011;1581;51.568;6.998;2024-03-06T07:03:23;48.37;;;24.30;;
3141;SDS011;1581;51.568;6.998;2024-03-06T07:05:54;40.33;;;22.47;;
3141;SDS011;1581;51.568;6.998;2024-03-06T07:08:22;37.27;;;19.87;;
3141;SDS011;1581;51.568;6.998;2024-03-06T07:10:48;35.90;;;21.23;;
3141;SDS011;1581;51.568;6.998;2024-03-06T07:13:17;38.67;;;20.17;;
3141;SDS011;1581;51.568;6.998;2024-03-06T07:15:44;35.53;;;19.67;;
3141;SDS011;1581;51.568;6.998;2024-03-06T07:18:11;35.57;;;20.13;;
3141;SDS011;1581;51.568;6.998;2024-03-06T07:20:39;36.43;;;21.50;;
3141;SDS011;1581;51.568;6.998;2024-03-06T07:23:06;33.83;;;20.10;;
3141;SDS011;1581;51.568;6.998;2024-03-06T07:25:34;35.07;;;20.50;;
3141;SDS011;1581;51.568;6.998;2024-03-06T07:28:01;34.40;;;20.03;;
3141;SDS011;1581;51.568;6.998;2024-03-06T07:30:30;45.53;;;22.40;;
3141;SDS011;1581;51.568;6.998;2024-03-06T07:32:57;40.30;;;22.57;;
3141;SDS011;1581;51.568;6.998;2024-03-06T07:35:24;36.30;;;22.27;;
3141;SDS011;1581;51.568;6.998;2024-03-06T07:37:51;38.77;;;22.57;;
3141;SDS011;1581;51.568;6.998;2024-03-06T07:40:18;38.80;;;23.00;;
3141;SDS011;1581;51.568;6.998;2024-03-06T07:42:45;42.87;;;25.00;;
3141;SDS011;1581;51.568;6.998;2024-03-06T07:45:12;41.67;;;24.47;;
3141;SDS011;1581;51.568;6.998;2024-03-06T07:47:40;42.47;;;23.90;;
3141;SDS011;1581;51.568;6.998;2024-03-06T07:50:08;42.80;;;24.43;;
3141;SDS011;1581;51.568;6.998;2024-03-06T07:52:37;46.83;;;24.33;;
3141;SDS011;1581;51.568;6.998;2024-03-06T07:55:05;46.77;;;26.07;;
3141;SDS011;1581;51.568;6.998;2024-03-06T07:57:32;51.03;;;26.33;;
3141;SDS011;1581;51.568;6.998;2024-03-06T07:59:59;47.83;;;27.13;;
3141;SDS011;1581;51.568;6.998;2024-03-06T08:02:33;49.23;;;25.67;;
3141;SDS011;1581;51.568;6.998;2024-03-06T08:05:04;43.07;;;23.50;;
3141;SDS011;1581;51.568;6.998;2024-03-06T08:07:34;47.20;;;27.57;;
3141;SDS011;1581;51.568;6.998;2024-03-06T08:10:01;56.50;;;26.73;;
3141;SDS011;1581;51.568;6.998;2024-03-06T08:12:30;54.80;;;30.00;;
3141;SDS011;1581;51.568;6.998;2024-03-06T08:14:57;47.40;;;30.00;;
3141;SDS011;1581;51.568;6.998;2024-03-06T08:17:24;57.03;;;29.03;;
3141;SDS011;1581;51.568;6.998;2024-03-06T08:19:51;50.23;;;27.37;;
3141;SDS011;1581;51.568;6.998;2024-03-06T08:22:19;46.27;;;24.67;;
3141;SDS011;1581;51.568;6.998;2024-03-06T08:24:46;52.43;;;27.87;;
3141;SDS011;1581;51.568;6.998;2024-03-06T08:27:13;46.07;;;26.47;;
3141;SDS011;1581;51.568;6.998;2024-03-06T08:29:40;47.27;;;25.03;;
3141;SDS011;1581;51.568;6.998;2024-03-06T08:32:07;47.53;;;25.20;;
3141;SDS011;1581;51.568;6.998;2024-03-06T08:34:34;53.43;;;27.53;;
3141;SDS011;1581;51.568;6.998;2024-03-06T08:37:01;52.60;;;28.80;;
3141;SDS011;1581;51.568;6.998;2024-03-06T08:39:30;44.90;;;26.30;;
3141;SDS011;1581;51.568;6.998;2024-03-06T08:41:57;55.13;;;29.23;;
3141;SDS011;1581;51.568;6.998;2024-03-06T08:44:25;49.30;;;26.30;;
3141;SDS011;1581;51.568;6.998;2024-03-06T08:46:53;57.70;;;28.00;;
3141;SDS011;1581;51.568;6.998;2024-03-06T08:49:20;54.50;;;28.40;;
3141;SDS011;1581;51.568;6.998;2024-03-06T08:51:46;55.60;;;29.90;;
3141;SDS011;1581;51.568;6.998;2024-03-06T08:54:13;66.53;;;31.47;;
3141;SDS011;1581;51.568;6.998;2024-03-06T08:56:43;64.17;;;30.17;;
3141;SDS011;1581;51.568;6.998;2024-03-06T08:59:10;69.40;;;31.13;;
3141;SDS011;1581;51.568;6.998;2024-03-06T09:01:38;67.00;;;31.73;;
3141;SDS011;1581;51.568;6.998;2024-03-06T09:04:05;79.13;;;32.90;;
3141;SDS011;1581;51.568;6.998;2024-03-06T09:06:32;75.13;;;33.90;;
3141;SDS011;1581;51.568;6.998;2024-03-06T09:08:59;69.60;;;33.40;;
3141;SDS011;1581;51.568;6.998;2024-03-06T09:11:26;71.23;;;33.70;;
3141;SDS011;1581;51.568;6.998;2024-03-06T09:13:54;65.00;;;32.10;;
3141;SDS011;1581;51.568;6.998;2024-03-06T09:16:21;68.57;;;34.97;;
3141;SDS011;1581;51.568;6.998;2024-03-06T09:18:49;75.90;;;34.73;;
3141;SDS011;1581;51.568;6.998;2024-03-06T09:21:16;67.07;;;33.27;;
3141;SDS011;1581;51.568;6.998;2024-03-06T09:23:43;65.40;;;30.60;;
3141;SDS011;1581;51.568;6.998;2024-03-06T09:26:10;61.80;;;30.37;;
3141;SDS011;1581;51.568;6.998;2024-03-06T09:28:38;62.37;;;29.37;;
3141;SDS011;1581;51.568;6.998;2024-03-06T09:31:07;73.77;;;31.50;;
3141;SDS011;1581;51.568;6.998;2024-03-06T09:33:34;70.67;;;32.47;;
3141;SDS011;1581;51.568;6.998;2024-03-06T09:36:01;66.13;;;31.30;;
3141;SDS011;1581;51.568;6.998;2024-03-06T09:38:29;64.20;;;29.27;;
3141;SDS011;1581;51.568;6.998;2024-03-06T09:40:56;64.07;;;30.03;;
3141;SDS011;1581;51.568;6.998;2024-03-06T09:43:23;67.00;;;31.63;;
3141;SDS011;1581;51.568;6.998;2024-03-06T09:45:50;77.67;;;31.83;;
3141;SDS011;1581;51.568;6.998;2024-03-06T09:48:18;90.77;;;35.60;;
3141;SDS011;1581;51.568;6.998;2024-03-06T09:50:47;78.57;;;35.00;;
3141;SDS011;1581;51.568;6.998;2024-03-06T09:53:17;86.63;;;35.53;;
3141;SDS011;1581;51.568;6.998;2024-03-06T09:55:47;71.23;;;32.37;;
3141;SDS011;1581;51.568;6.998;2024-03-06T09:58:15;83.77;;;33.03;;
3141;SDS011;1581;51.568;6.998;2024-03-06T10:00:42;86.57;;;36.40;;
3141;SDS011;1581;51.568;6.998;2024-03-06T10:03:12;79.30;;;35.60;;
3141;SDS011;1581;51.568;6.998;2024-03-06T10:05:41;81.20;;;36.00;;
3141;SDS011;1581;51.568;6.998;2024-03-06T10:08:08;77.47;;;35.43;;
3141;SDS011;1581;51.568;6.998;2024-03-06T10:10:35;79.23;;;34.57;;
3141;SDS011;1581;51.568;6.998;2024-03-06T10:13:02;73.10;;;34.97;;
3141;SDS011;1581;51.568;6.998;2024-03-06T10:15:32;86.50;;;38.90;;
3141;SDS011;1581;51.568;6.998;2024-03-06T10:18:11;96.43;;;36.47;;
3141;SDS011;1581;51.568;6.998;2024-03-06T10:20:41;84.23;;;36.80;;
3141;SDS011;1581;51.568;6.998;2024-03-06T10:23:09;93.63;;;39.17;;
3141;SDS011;1581;51.568;6.998;2024-03-06T10:25:36;76.60;;;37.60;;
3141;SDS011;1581;51.568;6.998;2024-03-06T10:28:04;88.37;;;37.33;;
3141;SDS011;1581;51.568;6.998;2024-03-06T10:30:33;97.17;;;40.80;;
3141;SDS011;1581;51.568;6.998;2024-03-06T10:33:01;89.37;;;38.63;;
3141;SDS011;1581;51.568;6.998;2024-03-06T10:35:31;88.80;;;39.33;;
3141;SDS011;1581;51.568;6.998;2024-03-06T10:38:00;87.50;;;40.07;;
3141;SDS011;1581;51.568;6.998;2024-03-06T10:40:28;86.63;;;41.13;;
3141;SDS011;1581;51.568;6.998;2024-03-06T10:42:58;88.43;;;39.50;;
3141;SDS011;1581;51.568;6.998;2024-03-06T10:45:28;89.93;;;38.90;;
3141;SDS011;1581;51.568;6.998;2024-03-06T10:48:07;90.10;;;40.80;;
3141;SDS011;1581;51.568;6.998;2024-03-06T10:50:36;90.33;;;39.27;;
3141;SDS011;1581;51.568;6.998;2024-03-06T10:53:10;80.60;;;39.50;;
3141;SDS011;1581;51.568;6.998;2024-03-06T10:55:39;85.83;;;41.63;;
3141;SDS011;1581;51.568;6.998;2024-03-06T10:58:06;86.03;;;38.73;;
3141;SDS011;1581;51.568;6.998;2024-03-06T11:00:35;76.27;;;36.53;;
3141;SDS011;1581;51.568;6.998;2024-03-06T11:03:05;79.10;;;35.17;;
3141;SDS011;1581;51.568;6.998;2024-03-06T11:05:34;82.17;;;39.13;;
3141;SDS011;1581;51.568;6.998;2024-03-06T11:08:04;89.73;;;40.67;;
3141;SDS011;1581;51.568;6.998;2024-03-06T11:10:35;83.70;;;39.03;;
3141;SDS011;1581;51.568;6.998;2024-03-06T11:13:03;93.40;;;41.90;;
3141;SDS011;1581;51.568;6.998;2024-03-06T11:15:35;78.90;;;38.73;;
3141;SDS011;1581;51.568;6.998;2024-03-06T11:21:28;71.93;;;35.87;;
3141;SDS011;1581;51.568;6.998;2024-03-06T11:24:11;78.13;;;36.87;;
3141;SDS011;1581;51.568;6.998;2024-03-06T11:26:48;81.07;;;35.23;;
3141;SDS011;1581;51.568;6.998;2024-03-06T11:29:21;65.10;;;35.60;;
3141;SDS011;1581;51.568;6.998;2024-03-06T11:32:04;68.37;;;36.67;;
3141;SDS011;1581;51.568;6.998;2024-03-06T11:34:34;66.50;;;32.90;;
3141;SDS011;1581;51.568;6.998;2024-03-06T11:37:03;76.60;;;34.70;;
3141;SDS011;1581;51.568;6.998;2024-03-06T11:39:34;68.37;;;30.83;;
3141;SDS011;1581;51.568;6.998;2024-03-06T11:42:04;74.13;;;35.00;;
3141;SDS011;1581;51.568;6.998;2024-03-06T11:44:33;72.20;;;35.53;;
3141;SDS011;1581;51.568;6.998;2024-03-06T11:47:01;78.37;;;33.70;;
3141;SDS011;1581;51.568;6.998;2024-03-06T11:49:30;61.63;;;31.83;;
3141;SDS011;1581;51.568;6.998;2024-03-06T11:51:59;61.50;;;31.27;;
3141;SDS011;1581;51.568;6.998;2024-03-06T11:54:29;61.63;;;31.00;;
3141;SDS011;1581;51.568;6.998;2024-03-06T11:56:58;65.90;;;28.27;;
3141;SDS011;1581;51.568;6.998;2024-03-06T11:59:28;61.10;;;30.80;;
3141;SDS011;1581;51.568;6.998;2024-03-06T12:01:58;79.43;;;31.50;;
3141;SDS011;1581;51.568;6.998;2024-03-06T12:04:27;62.43;;;29.50;;
3141;SDS011;1581;51.568;6.998;2024-03-06T12:06:56;74.40;;;30.93;;
3141;SDS011;1581;51.568;6.998;2024-03-06T12:09:25;53.70;;;29.40;;
3141;SDS011;1581;51.568;6.998;2024-03-06T12:11:52;65.93;;;31.90;;
3141;SDS011;1581;51.568;6.998;2024-03-06T12:14:20;57.87;;;29.03;;
3141;SDS011;1581;51.568;6.998;2024-03-06T12:16:55;59.53;;;30.53;;
3141;SDS011;1581;51.568;6.998;2024-03-06T12:19:23;58.60;;;29.10;;
3141;SDS011;1581;51.568;6.998;2024-03-06T12:21:52;65.70;;;30.37;;
3141;SDS011;1581;51.568;6.998;2024-03-06T12:24:19;54.17;;;26.80;;
3141;SDS011;1581;51.568;6.998;2024-03-06T12:26:47;53.27;;;28.63;;
3141;SDS011;1581;51.568;6.998;2024-03-06T12:29:27;51.97;;;27.37;;
3141;SDS011;1581;51.568;6.998;2024-03-06T12:31:58;45.97;;;24.70;;
3141;SDS011;1581;51.568;6.998;2024-03-06T12:34:26;51.70;;;27.37;;
3141;SDS011;1581;51.568;6.998;2024-03-06T12:36:53;43.53;;;26.07;;
3141;SDS011;1581;51.568;6.998;2024-03-06T12:39:21;49.00;;;24.97;;
3141;SDS011;1581;51.568;6.998;2024-03-06T12:41:50;49.57;;;25.70;;
3141;SDS011;1581;51.568;6.998;2024-03-06T12:44:17;46.33;;;25.57;;
3141;SDS011;1581;51.568;6.998;2024-03-06T12:46:45;56.80;;;30.30;;
3141;SDS011;1581;51.568;6.998;2024-03-06T12:49:13;62.27;;;27.80;;
3141;SDS011;1581;51.568;6.998;2024-03-06T12:51:41;42.23;;;23.60;;
3141;SDS011;1581;51.568;6.998;2024-03-06T12:54:09;39.97;;;23.30;;
3141;SDS011;1581;51.568;6.998;2024-03-06T12:56:36;48.23;;;23.80;;
3141;SDS011;1581;51.568;6.998;2024-03-06T12:59:03;48.93;;;27.30;;
3141;SDS011;1581;51.568;6.998;2024-03-06T13:01:30;50.87;;;26.97;;
3141;SDS011;1581;51.568;6.998;2024-03-06T13:03:57;43.97;;;24.97;;
3141;SDS011;1581;51.568;6.998;2024-03-06T13:06:26;47.60;;;26.70;;
3141;SDS011;1581;51.568;6.998;2024-03-06T13:08:56;45.07;;;26.57;;
3141;SDS011;1581;51.568;6.998;2024-03-06T13:11:23;43.27;;;24.90;;
3141;SDS011;1581;51.568;6.998;2024-03-06T13:13:50;38.10;;;22.60;;
3141;SDS011;1581;51.568;6.998;2024-03-06T13:16:18;38.08;;;21.10;;
3141;SDS011;1581;51.568;6.998;2024-03-06T13:18:47;41.78;;;22.45;;
3141;SDS011;1581;51.568;6.998;2024-03-06T13:21:14;38.08;;;22.63;;
3141;SDS011;1581;51.568;6.998;2024-03-06T13:23:43;38.45;;;22.63;;
3141;SDS011;1581;51.568;6.998;2024-03-06T13:26:09;36.45;;;22.50;;
3141;SDS011;1581;51.568;6.998;2024-03-06T13:28:38;40.55;;;25.58;;
3141;SDS011;1581;51.568;6.998;2024-03-06T13:31:04;38.15;;;24.42;;
3141;SDS011;1581;51.568;6.998;2024-03-06T13:33:32;36.75;;;24.13;;
3141;SDS011;1581;51.568;6.998;2024-03-06T13:35:59;38.25;;;24.10;;
3141;SDS011;1581;51.568;6.998;2024-03-06T13:38:26;43.42;;;27.52;;
3141;SDS011;1581;51.568;6.998;2024-03-06T13:40:54;42.92;;;27.50;;
3141;SDS011;1581;51.568;6.998;2024-03-06T13:43:21;36.67;;;25.05;;
3141;SDS011;1581;51.568;6.998;2024-03-06T13:45:49;38.55;;;26.05;;
3141;SDS011;1581;51.568;6.998;2024-03-06T13:48:16;41.92;;;26.60;;
3141;SDS011;1581;51.568;6.998;2024-03-06T13:50:44;40.25;;;27.13;;
3141;SDS011;1581;51.568;6.998;2024-03-06T13:53:11;40.05;;;24.73;;
3141;SDS011;1581;51.568;6.998;2024-03-06T13:55:38;39.97;;;25.15;;
3141;SDS011;1581;51.568;6.998;2024-03-06T13:58:08;39.37;;;26.77;;
3141;SDS011;1581;51.568;6.998;2024-03-06T14:00:35;42.53;;;26.90;;
3141;SDS011;1581;51.568;6.998;2024-03-06T14:03:02;43.20;;;24.87;;
3141;SDS011;1581;51.568;6.998;2024-03-06T14:05:30;36.37;;;25.93;;
3141;SDS011;1581;51.568;6.998;2024-03-06T14:07:57;37.13;;;25.00;;
3141;SDS011;1581;51.568;6.998;2024-03-06T14:10:24;39.63;;;26.40;;
3141;SDS011;1581;51.568;6.998;2024-03-06T14:12:51;37.30;;;25.97;;
3141;SDS011;1581;51.568;6.998;2024-03-06T14:15:21;40.30;;;26.07;;
3141;SDS011;1581;51.568;6.998;2024-03-06T14:17:49;37.20;;;24.17;;
3141;SDS011;1581;51.568;6.998;2024-03-06T14:20:16;37.23;;;22.43;;
3141;SDS011;1581;51.568;6.998;2024-03-06T14:22:43;30.80;;;21.67;;
3141;SDS011;1581;51.568;6.998;2024-03-06T14:25:10;33.00;;;21.90;;
3141;SDS011;1581;51.568;6.998;2024-03-06T14:27:37;34.17;;;23.10;;
3141;SDS011;1581;51.568;6.998;2024-03-06T14:30:05;36.83;;;22.50;;
3141;SDS011;1581;51.568;6.998;2024-03-06T14:32:35;29.03;;;21.93;;
3141;SDS011;1581;51.568;6.998;2024-03-06T14:35:02;34.10;;;24.10;;
3141;SDS011;1581;51.568;6.998;2024-03-06T14:37:30;37.50;;;24.27;;
3141;SDS011;1581;51.568;6.998;2024-03-06T14:39:57;34.87;;;24.10;;
3141;SDS011;1581;51.568;6.998;2024-03-06T14:42:24;36.53;;;22.57;;
3141;SDS011;1581;51.568;6.998;2024-03-06T14:44:50;36.10;;;24.20;;
3141;SDS011;1581;51.568;6.998;2024-03-06T14:47:17;33.70;;;22.50;;
3141;SDS011;1581;51.568;6.998;2024-03-06T14:49:46;32.17;;;21.40;;
3141;SDS011;1581;51.568;6.998;2024-03-06T14:52:13;30.73;;;21.40;;
3141;SDS011;1581;51.568;6.998;2024-03-06T14:54:40;33.42;;;23.15;;